Time;durP1;ratioP1;P1;durP2;ratioP2;P2;SDS_P1;SDS_P2;PMS_P1;PMS_P2;Temp;Humidity;BMP_temperature;BMP_pressure;BME280_temperature;BME280_humidity;BME280_pressure;Samples;Min_cycle;Max_cycle;Signal;HPM_P1;HPM_P2
2022/03/25 00:01:41;;;;;;;9.70;6.70;;;;;;;11.77;21.37;95252.19;4965419;28;20200;-65
2022/03/25 00:04:08;;;;;;;8.00;6.40;;;;;;;11.74;21.07;95257.78;4964951;28;20649;-65
2022/03/25 00:06:34;;;;;;;8.82;6.55;;;;;;;11.68;21.37;95250.47;4956490;28;20240;-65
2022/03/25 00:09:00;;;;;;;10.48;6.38;;;;;;;11.65;21.24;95242.88;4962025;28;20286;-65
2022/03/25 00:11:26;;;;;;;9.15;7.00;;;;;;;11.67;21.12;95252.28;4955771;28;20247;-65
2022/03/25 00:13:51;;;;;;;8.48;6.13;;;;;;;11.67;21.12;95246.19;4954293;28;20535;-64
2022/03/25 00:16:16;;;;;;;8.90;6.45;;;;;;;11.65;21.16;95238.47;4964397;28;20224;-64
2022/03/25 00:18:42;;;;;;;12.50;6.50;;;;;;;11.59;21.29;95241.69;4961062;28;20232;-65
2022/03/25 00:21:07;;;;;;;6.97;6.22;;;;;;;11.61;21.13;95244.19;4961057;28;20256;-66
2022/03/25 00:23:33;;;;;;;9.27;6.15;;;;;;;11.60;21.52;95231.97;4955422;28;20483;-68
2022/03/25 00:25:58;;;;;;;10.77;6.63;;;;;;;11.65;21.13;95235.81;4961821;28;20212;-67
2022/03/25 00:28:24;;;;;;;9.25;6.15;;;;;;;11.60;21.52;95229.34;4953724;28;20208;-68
2022/03/25 00:30:49;;;;;;;7.75;6.60;;;;;;;11.61;21.13;95231.81;4959063;28;20244;-68
2022/03/25 00:33:16;;;;;;;9.27;5.93;;;;;;;11.59;21.21;95225.06;4957003;28;20272;-66
2022/03/25 00:35:42;;;;;;;8.75;6.63;;;;;;;11.63;20.86;95221.97;4994283;28;20224;-67
2022/03/25 00:38:08;;;;;;;8.73;6.22;;;;;;;11.63;21.12;95213.25;4966342;28;20276;-66
2022/03/25 00:40:33;;;;;;;9.07;6.10;;;;;;;11.54;21.10;95214.97;4959084;28;20215;-67
2022/03/25 00:42:59;;;;;;;8.50;6.30;;;;;;;11.63;20.71;95218.53;4963261;28;20216;-66
2022/03/25 00:45:25;;;;;;;8.57;5.68;;;;;;;11.58;20.99;95215.50;4960756;28;20238;-67
2022/03/25 00:47:50;;;;;;;9.05;6.13;;;;;;;11.53;21.14;95213.34;4962214;28;20228;-66
2022/03/25 00:50:16;;;;;;;9.35;6.15;;;;;;;11.51;21.23;95209.19;4956238;28;20722;-66
2022/03/25 00:52:42;;;;;;;8.00;5.88;;;;;;;11.52;21.29;95202.94;4962564;28;20279;-65
2022/03/25 00:55:08;;;;;;;9.45;5.90;;;;;;;11.52;21.47;95203.78;4955615;28;20224;-64
2022/03/25 00:57:34;;;;;;;7.70;6.13;;;;;;;11.55;21.41;95200.03;4959181;28;20227;-65
2022/03/25 01:00:00;;;;;;;7.38;6.38;;;;;;;11.54;21.40;95204.44;4962125;28;20235;-65
2022/03/25 01:02:25;;;;;;;11.70;6.13;;;;;;;11.51;21.51;95196.03;4990425;28;20228;-65
2022/03/25 01:04:51;;;;;;;9.18;5.75;;;;;;;11.50;21.41;95203.09;4955853;28;20539;-65
2022/03/25 01:07:17;;;;;;;6.78;6.05;;;;;;;11.48;21.48;95203.25;4958188;28;20227;-65
2022/03/25 01:09:43;;;;;;;7.10;5.72;;;;;;;11.49;21.30;95196.16;4962054;28;20220;-65
2022/03/25 01:12:09;;;;;;;7.65;5.97;;;;;;;11.50;21.48;95202.28;4962006;28;20256;-64
2022/03/25 01:14:35;;;;;;;6.75;5.88;;;;;;;11.46;21.43;95199.09;4956061;28;20224;-65
2022/03/25 01:17:00;;;;;;;10.07;5.88;;;;;;;11.42;21.49;95201.22;4990200;28;20212;-64
2022/03/25 01:19:27;;;;;;;7.28;5.50;;;;;;;11.38;21.60;95202.50;4955992;28;20204;-64
2022/03/25 01:21:56;;;;;;;10.52;5.72;;;;;;;11.39;21.57;95195.44;4964713;28;20250;-65
2022/03/25 01:24:22;;;;;;;7.50;6.10;;;;;;;11.40;21.54;95200.56;4964698;28;20228;-65
2022/03/25 01:26:48;;;;;;;6.93;5.38;;;;;;;11.40;21.37;95199.72;4963992;28;20710;-64
2022/03/25 01:29:14;;;;;;;8.07;5.63;;;;;;;11.37;21.54;95202.66;4963636;28;20208;-64
2022/03/25 01:31:39;;;;;;;8.00;5.75;;;;;;;11.31;21.63;95196.22;4959042;28;20213;-64
2022/03/25 01:34:05;;;;;;;8.20;5.90;;;;;;;11.32;21.60;95187.31;4959892;28;20256;-65
2022/03/25 01:36:31;;;;;;;7.80;6.07;;;;;;;11.33;21.89;95196.84;4958402;28;20235;-64
2022/03/25 01:38:58;;;;;;;8.65;5.72;;;;;;;11.23;21.55;95191.69;4960800;28;20235;-65
2022/03/25 01:41:24;;;;;;;8.68;6.00;;;;;;;11.18;21.82;95193.13;4956616;28;20510;-65
2022/03/25 01:44:00;;;;;;;10.48;5.90;;;;;;;11.20;21.85;95199.06;4956881;28;20637;-64
2022/03/25 01:46:26;;;;;;;7.05;5.75;;;;;;;11.22;21.55;95197.91;4961356;28;20216;-65
2022/03/25 01:48:53;;;;;;;8.20;5.95;;;;;;;11.28;21.30;95207.06;4958094;28;20262;-65
2022/03/25 01:51:30;;;;;;;10.18;6.22;;;;;;;11.22;21.95;95210.25;4953625;28;20262;-65
2022/03/25 01:54:01;;;;;;;8.05;6.00;;;;;;;11.17;21.47;95209.88;4952299;28;20220;-69
2022/03/25 01:56:26;;;;;;;9.55;5.38;;;;;;;11.25;21.25;95209.97;4951915;28;20235;-69
2022/03/25 01:58:52;;;;;;;8.45;5.38;;;;;;;11.18;21.45;95208.94;4961396;28;20316;-68
2022/03/25 02:01:18;;;;;;;6.60;5.60;;;;;;;11.22;21.56;95200.56;4958222;28;20244;-68
2022/03/25 02:03:44;;;;;;;9.63;5.75;;;;;;;11.25;21.59;95196.78;4962630;28;20456;-67
2022/03/25 02:06:11;;;;;;;8.07;5.95;;;;;;;11.23;21.58;95207.50;4958835;28;20252;-68
2022/03/25 02:08:37;;;;;;;7.68;5.90;;;;;;;11.15;21.38;95212.69;4945864;28;20440;-68
2022/03/25 02:11:02;;;;;;;10.90;6.00;;;;;;;11.18;21.36;95208.94;4958072;28;20227;-68
2022/03/25 02:13:28;;;;;;;8.38;6.53;;;;;;;11.18;21.81;95207.13;4955788;28;20291;-68
2022/03/25 02:15:54;;;;;;;8.82;6.28;;;;;;;11.10;21.62;95206.22;4954699;28;20721;-69
2022/03/25 02:18:19;;;;;;;7.45;6.53;;;;;;;11.06;21.57;95199.59;4961124;28;20224;-69
2022/03/25 02:20:46;;;;;;;10.93;6.30;;;;;;;11.06;21.67;95202.22;4955876;28;20224;-68
2022/03/25 02:23:13;;;;;;;7.95;6.57;;;;;;;11.04;21.72;95205.03;4963215;28;20745;-68
2022/03/25 02:25:40;;;;;;;9.40;6.35;;;;;;;11.02;21.40;95199.91;4953629;28;20248;-67
2022/03/25 02:28:06;;;;;;;7.75;6.07;;;;;;;10.95;21.73;95196.19;4952872;28;20308;-68
2022/03/25 02:30:33;;;;;;;8.95;5.90;;;;;;;10.97;21.72;95194.25;4963654;28;20225;-68
2022/03/25 02:33:02;;;;;;;8.73;6.20;;;;;;;10.89;21.86;95194.16;4973758;28;20299;-68
2022/03/25 02:35:54;;;;;;;7.15;6.28;;;;;;;10.87;21.88;95190.84;4962913;28;20223;-66
2022/03/25 02:38:22;;;;;;;10.43;6.60;;;;;;;10.86;22.00;95191.84;4975314;28;20228;-64
2022/03/25 02:40:48;;;;;;;9.57;5.97;;;;;;;10.83;22.22;95189.50;4965835;28;20211;-64
2022/03/25 02:43:14;;;;;;;11.38;6.30;;;;;;;10.82;21.99;95190.47;4964639;28;20209;-64
2022/03/25 02:45:40;;;;;;;6.70;5.93;;;;;;;10.77;22.41;95190.09;4960461;28;20228;-68
2022/03/25 02:48:07;;;;;;;10.70;6.90;;;;;;;10.73;22.46;95194.00;4962620;28;20271;-68
2022/03/25 02:50:33;;;;;;;7.72;6.32;;;;;;;10.73;22.54;95199.28;4956577;28;20221;-69
2022/03/25 02:52:59;;;;;;;7.47;6.18;;;;;;;10.74;22.47;95191.22;4958968;28;21327;-69
2022/03/25 02:55:25;;;;;;;9.50;5.93;;;;;;;10.72;22.57;95193.19;4967664;28;20212;-68
2022/03/25 02:57:55;;;;;;;12.65;6.57;;;;;;;10.64;23.06;95190.47;4963895;28;20226;-69
2022/03/25 03:00:21;;;;;;;9.55;6.22;;;;;;;10.66;22.83;95198.19;4955017;28;20252;-69
2022/03/25 03:02:48;;;;;;;9.05;5.82;;;;;;;10.58;22.87;95194.53;4962075;28;20234;-69
2022/03/25 03:05:14;;;;;;;10.90;6.15;;;;;;;10.64;22.85;95194.88;4964729;28;20204;-68
2022/03/25 03:07:40;;;;;;;9.77;5.97;;;;;;;10.51;22.86;95188.19;4957238;28;20212;-68
2022/03/25 03:10:07;;;;;;;7.05;6.13;;;;;;;10.52;23.31;95197.72;4964130;28;20228;-69
2022/03/25 03:12:34;;;;;;;7.88;6.00;;;;;;;10.59;23.26;95197.97;4956142;28;20235;-68
2022/03/25 03:15:00;;;;;;;7.45;5.65;;;;;;;10.38;23.28;95190.31;4953735;28;20242;-68
2022/03/25 03:17:27;;;;;;;10.55;6.05;;;;;;;10.42;23.07;95196.94;4960390;28;20250;-68
2022/03/25 03:19:52;;;;;;;10.50;6.65;;;;;;;10.36;23.01;95195.72;4958431;28;20216;-68
2022/03/25 03:22:18;;;;;;;10.07;6.20;;;;;;;10.35;23.27;95206.41;4958259;28;20715;-68
2022/03/25 03:24:44;;;;;;;7.53;6.07;;;;;;;10.39;23.05;95202.50;4960737;28;20651;-70
2022/03/25 03:27:10;;;;;;;9.70;6.65;;;;;;;10.32;23.48;95201.44;4959367;28;20236;-68
2022/03/25 03:29:36;;;;;;;8.80;6.38;;;;;;;10.24;23.43;95207.38;4967547;28;20224;-69
2022/03/25 03:32:02;;;;;;;9.95;6.60;;;;;;;10.33;23.09;95214.41;4970485;28;20234;-66
2022/03/25 03:34:28;;;;;;;8.52;6.68;;;;;;;10.29;23.29;95212.22;4963448;28;20267;-67
2022/03/25 03:36:54;;;;;;;8.25;6.63;;;;;;;10.23;23.25;95210.97;4952488;28;20256;-67
2022/03/25 03:39:19;;;;;;;10.77;6.85;;;;;;;10.15;23.58;95208.22;4957672;28;20239;-67
2022/03/25 03:41:45;;;;;;;9.63;6.53;;;;;;;10.19;23.53;95200.91;4965497;28;20220;-67
2022/03/25 03:44:10;;;;;;;8.43;7.00;;;;;;;10.13;23.65;95205.75;4963009;28;20711;-67
2022/03/25 03:46:36;;;;;;;7.82;6.65;;;;;;;10.20;23.56;95211.25;4970137;28;20212;-66
2022/03/25 03:49:01;;;;;;;10.50;7.07;;;;;;;10.18;23.33;95205.31;4967026;28;20230;-67
2022/03/25 03:51:27;;;;;;;10.43;7.38;;;;;;;10.12;23.77;95206.72;4978945;28;20232;-67
2022/03/25 03:53:53;;;;;;;8.80;6.72;;;;;;;10.06;23.70;95214.38;4966392;28;20236;-67
2022/03/25 03:56:18;;;;;;;11.52;6.82;;;;;;;9.95;23.57;95207.50;4965336;28;20239;-65
2022/03/25 03:58:44;;;;;;;10.15;7.32;;;;;;;10.03;23.62;95202.34;4968218;28;20208;-65
2022/03/25 04:01:10;;;;;;;10.02;6.82;;;;;;;9.92;23.86;95203.34;4960202;28;20304;-64
2022/03/25 04:03:35;;;;;;;8.18;6.70;;;;;;;9.92;23.70;95205.97;4966464;28;20290;-64
2022/03/25 04:06:01;;;;;;;11.27;6.88;;;;;;;9.96;23.83;95210.94;4969070;28;20228;-65
2022/03/25 04:08:27;;;;;;;9.48;6.68;;;;;;;9.92;23.68;95211.22;4962108;28;20220;-68
2022/03/25 04:10:52;;;;;;;9.02;7.13;;;;;;;9.85;24.10;95210.13;4956865;28;20203;-68
2022/03/25 04:13:18;;;;;;;14.55;7.50;;;;;;;9.81;24.22;95208.78;4955452;28;20237;-68
2022/03/25 04:15:43;;;;;;;9.45;6.55;;;;;;;9.66;24.76;95213.63;4956991;28;20229;-68
2022/03/25 04:18:09;;;;;;;12.23;7.57;;;;;;;9.68;24.99;95209.06;4961506;28;20916;-69
2022/03/25 04:20:34;;;;;;;13.95;7.28;;;;;;;9.75;24.75;95205.88;4966205;28;20271;-69
2022/03/25 04:23:00;;;;;;;14.25;7.68;;;;;;;9.72;24.46;95212.25;4968140;28;20259;-69
2022/03/25 04:25:26;;;;;;;10.73;7.40;;;;;;;9.70;24.55;95204.53;4965280;28;20740;-68
2022/03/25 04:27:56;;;;;;;11.35;7.82;;;;;;;9.74;24.65;95209.47;4966822;28;20243;-67
2022/03/25 04:30:24;;;;;;;10.20;7.57;;;;;;;9.78;24.32;95216.09;4960096;28;20266;-67
2022/03/25 04:32:51;;;;;;;10.82;7.75;;;;;;;9.74;24.45;95212.94;4967041;28;20254;-66
2022/03/25 04:35:17;;;;;;;12.95;7.35;;;;;;;9.69;24.31;95215.16;4964791;28;20714;-68
2022/03/25 04:37:43;;;;;;;10.70;7.90;;;;;;;9.72;24.19;95218.31;4958962;28;20210;-68
2022/03/25 04:40:17;;;;;;;9.40;7.30;;;;;;;9.77;24.60;95222.31;4966936;28;20231;-68
2022/03/25 04:42:43;;;;;;;9.53;7.33;;;;;;;9.81;24.56;95223.69;4957521;28;20735;-69
2022/03/25 04:45:09;;;;;;;13.43;7.70;;;;;;;9.83;24.81;95216.50;4952235;28;20240;-68
2022/03/25 04:47:34;;;;;;;12.05;7.55;;;;;;;9.72;25.39;95220.94;4944444;28;20229;-68
2022/03/25 04:50:00;;;;;;;8.27;6.97;;;;;;;9.73;24.85;95229.66;4961650;28;20664;-67
2022/03/25 04:52:26;;;;;;;9.85;7.50;;;;;;;9.56;25.90;95223.31;4962255;28;20216;-67
2022/03/25 04:54:51;;;;;;;10.32;7.90;;;;;;;9.52;26.00;95227.22;4962975;28;20287;-68
2022/03/25 04:57:17;;;;;;;10.95;7.47;;;;;;;9.54;25.06;95227.88;4966958;28;20264;-66
2022/03/25 04:59:42;;;;;;;9.18;7.68;;;;;;;9.68;24.96;95231.88;4956344;28;20248;-67
2022/03/25 05:02:09;;;;;;;10.57;7.65;;;;;;;9.70;24.86;95228.16;4966720;28;20200;-66
2022/03/25 05:04:35;;;;;;;12.20;8.55;;;;;;;9.76;24.62;95226.75;4960039;28;20196;-67
2022/03/25 05:07:01;;;;;;;14.88;7.85;;;;;;;9.73;24.76;95219.16;4967759;28;20261;-68
2022/03/25 05:09:26;;;;;;;14.32;8.23;;;;;;;9.84;24.64;95231.31;4957697;28;20228;-65
2022/03/25 05:11:52;;;;;;;13.57;8.05;;;;;;;9.89;24.49;95234.31;4963721;28;20232;-66
2022/03/25 05:14:18;;;;;;;11.57;8.00;;;;;;;9.84;24.67;95237.38;4998550;28;20283;-66
2022/03/25 05:16:44;;;;;;;11.68;8.07;;;;;;;9.93;24.72;95241.75;4966120;28;20204;-66
2022/03/25 05:19:10;;;;;;;10.60;7.72;;;;;;;9.94;24.48;95235.56;4961135;28;20605;-66
2022/03/25 05:21:35;;;;;;;11.98;8.05;;;;;;;9.95;25.07;95236.38;4962091;28;20244;-68
2022/03/25 05:24:01;;;;;;;12.48;8.32;;;;;;;9.99;24.46;95236.91;4955520;28;20824;-67
2022/03/25 05:26:27;;;;;;;12.55;8.20;;;;;;;10.02;24.80;95231.38;4961846;28;20375;-67
2022/03/25 05:28:52;;;;;;;14.98;8.18;;;;;;;10.17;24.21;95232.56;4965388;28;20216;-67
2022/03/25 05:31:17;;;;;;;14.95;7.82;;;;;;;10.19;24.31;95235.06;4966734;28;20254;-67
2022/03/25 05:33:43;;;;;;;10.65;8.13;;;;;;;10.32;24.66;95232.97;4966618;28;20284;-67
2022/03/25 05:36:09;;;;;;;10.55;8.70;;;;;;;10.46;23.72;95234.28;4957977;28;20434;-67
2022/03/25 05:38:34;;;;;;;11.18;8.55;;;;;;;10.53;23.72;95235.34;4956224;28;20645;-67
2022/03/25 05:41:00;;;;;;;10.93;8.25;;;;;;;10.56;23.84;95224.56;4965396;28;20259;-67
2022/03/25 05:43:25;;;;;;;12.70;8.25;;;;;;;10.59;23.67;95240.03;4958859;28;20196;-67
2022/03/25 05:45:51;;;;;;;17.40;8.07;;;;;;;10.60;23.59;95239.88;4957507;28;20886;-68
2022/03/25 05:48:16;;;;;;;14.48;7.93;;;;;;;10.67;23.38;95231.44;4957147;28;20228;-69
2022/03/25 05:50:42;;;;;;;13.25;7.80;;;;;;;10.78;23.27;95237.31;4966756;28;20220;-65
2022/03/25 05:53:07;;;;;;;14.85;8.05;;;;;;;10.86;22.99;95239.19;4958358;28;20224;-65
2022/03/25 05:55:33;;;;;;;14.60;7.93;;;;;;;11.00;22.91;95243.94;4953528;28;20267;-69
2022/03/25 05:57:59;;;;;;;12.25;8.60;;;;;;;11.07;23.18;95230.22;4955606;28;20319;-69
2022/03/25 06:00:25;;;;;;;11.63;8.38;;;;;;;11.08;23.25;95243.19;4959765;28;20268;-68
2022/03/25 06:02:50;;;;;;;11.65;8.32;;;;;;;11.20;22.69;95233.25;4957026;28;20792;-65
2022/03/25 06:05:17;;;;;;;13.45;8.50;;;;;;;11.29;22.37;95242.91;4965813;28;20239;-66
2022/03/25 06:07:43;;;;;;;14.30;8.40;;;;;;;11.37;22.87;95235.09;4968547;28;20212;-63
2022/03/25 06:10:12;;;;;;;16.13;7.75;;;;;;;11.53;22.88;95236.22;4969222;28;20232;-65
2022/03/25 06:12:39;;;;;;;10.90;8.82;;;;;;;11.54;22.51;95238.66;4966697;28;20259;-65
2022/03/25 06:15:05;;;;;;;10.10;8.20;;;;;;;11.60;22.46;95240.72;4963801;28;20232;-70
2022/03/25 06:17:31;;;;;;;14.73;8.32;;;;;;;11.69;22.06;95234.53;4959869;28;20228;-70
2022/03/25 06:19:56;;;;;;;10.88;8.55;;;;;;;11.68;21.87;95239.94;4954957;28;20224;-70
2022/03/25 06:22:24;;;;;;;14.05;7.70;;;;;;;11.66;22.25;95237.47;4965087;28;20283;-69
2022/03/25 06:24:52;;;;;;;14.55;8.48;;;;;;;11.77;22.05;95238.22;4969517;28;20231;-70
2022/03/25 06:27:18;;;;;;;13.38;8.52;;;;;;;11.87;21.93;95252.97;4982903;28;20237;-71
2022/03/25 06:29:44;;;;;;;12.85;8.23;;;;;;;11.89;21.41;95244.91;4958725;28;20231;-69
2022/03/25 06:32:09;;;;;;;10.52;7.88;;;;;;;11.93;21.50;95250.69;4968221;28;20461;-70
2022/03/25 06:34:34;;;;;;;10.57;8.70;;;;;;;12.13;20.67;95244.22;4961533;28;20303;-70
2022/03/25 06:37:01;;;;;;;12.05;8.18;;;;;;;12.21;20.23;95257.44;4986459;28;20232;-70
2022/03/25 06:39:27;;;;;;;11.57;8.43;;;;;;;12.14;20.93;95246.72;4963006;28;20239;-70
2022/03/25 06:41:52;;;;;;;12.15;8.98;;;;;;;12.13;20.62;95247.72;4957616;28;20228;-68
2022/03/25 06:44:19;;;;;;;12.48;9.48;;;;;;;12.26;20.37;95255.19;4960978;28;20240;-67
2022/03/25 06:46:44;;;;;;;12.57;10.13;;;;;;;12.25;20.07;95256.19;4965150;28;20220;-67
2022/03/25 06:49:10;;;;;;;11.80;9.40;;;;;;;12.27;20.18;95246.31;4968442;28;20228;-68
2022/03/25 06:51:35;;;;;;;10.32;9.10;;;;;;;12.29;20.28;95259.31;4966431;28;20239;-68
2022/03/25 06:54:02;;;;;;;12.95;9.32;;;;;;;12.33;20.36;95250.94;4963366;28;20239;-67
2022/03/25 06:56:28;;;;;;;14.43;9.43;;;;;;;12.44;20.52;95264.84;4956060;28;20661;-67
2022/03/25 06:58:54;;;;;;;13.32;9.88;;;;;;;12.49;20.12;95258.13;4950603;28;20343;-67
2022/03/25 07:01:20;;;;;;;11.55;10.10;;;;;;;12.45;19.90;95264.69;4960904;28;20228;-68
2022/03/25 07:03:46;;;;;;;18.65;10.20;;;;;;;12.41;20.18;95265.16;4968636;28;20298;-69
2022/03/25 07:06:12;;;;;;;15.43;10.32;;;;;;;12.34;20.43;95255.22;4960989;28;20328;-66
2022/03/25 07:08:39;;;;;;;17.17;10.25;;;;;;;12.40;20.21;95259.03;4982008;28;20319;-70
2022/03/25 07:11:05;;;;;;;15.75;10.77;;;;;;;12.44;20.20;95259.56;4968795;28;20210;-69
2022/03/25 07:13:31;;;;;;;29.58;12.43;;;;;;;12.49;20.49;95267.84;4964258;28;20763;-70
2022/03/25 07:15:57;;;;;;;19.02;11.63;;;;;;;12.47;20.46;95264.53;4961698;28;20221;-69
2022/03/25 07:18:22;;;;;;;17.15;11.35;;;;;;;12.49;20.83;95267.84;4968189;28;20228;-69
2022/03/25 07:20:48;;;;;;;15.02;11.00;;;;;;;12.49;20.51;95255.47;4962593;28;20227;-69
2022/03/25 07:23:13;;;;;;;15.00;11.27;;;;;;;12.69;20.47;95248.13;4957735;28;20264;-70
2022/03/25 07:25:39;;;;;;;18.30;10.65;;;;;;;12.78;20.59;95256.94;4954526;28;20219;-71
2022/03/25 07:28:04;;;;;;;22.95;11.90;;;;;;;12.89;20.25;95259.28;4956720;28;20310;-67
2022/03/25 07:30:30;;;;;;;13.85;11.20;;;;;;;12.90;20.80;95260.91;4957029;28;20216;-67
2022/03/25 07:32:55;;;;;;;15.52;10.70;;;;;;;13.00;20.50;95255.50;4954046;28;20237;-67
2022/03/25 07:35:21;;;;;;;18.70;11.73;;;;;;;13.00;20.30;95258.97;4955493;28;20353;-67
2022/03/25 07:37:47;;;;;;;15.77;11.02;;;;;;;13.11;20.61;95267.59;4955815;28;20197;-71
2022/03/25 07:40:14;;;;;;;14.18;10.98;;;;;;;13.15;20.42;95264.47;4954060;28;20216;-67
2022/03/25 07:42:43;;;;;;;16.23;11.32;;;;;;;13.11;19.88;95263.13;4954305;28;20212;-66
2022/03/25 07:45:10;;;;;;;14.73;11.32;;;;;;;12.98;20.44;95262.75;4956674;28;20234;-67
2022/03/25 07:47:41;;;;;;;15.90;11.73;;;;;;;13.10;20.37;95265.94;4962060;28;20230;-68
2022/03/25 07:50:09;;;;;;;13.75;10.55;;;;;;;13.22;20.18;95260.16;4957369;28;20204;-66
2022/03/25 07:52:34;;;;;;;15.90;10.98;;;;;;;13.38;20.04;95269.16;4960037;28;20220;-67
2022/03/25 07:55:00;;;;;;;13.50;11.27;;;;;;;13.39;20.02;95273.44;4957927;28;20252;-66
2022/03/25 07:57:26;;;;;;;17.58;10.82;;;;;;;13.30;20.05;95263.84;4953593;28;20231;-68
2022/03/25 07:59:51;;;;;;;16.08;11.23;;;;;;;13.39;20.11;95265.50;4956624;28;20225;-67
2022/03/25 08:02:17;;;;;;;17.67;11.65;;;;;;;13.47;19.93;95257.59;4956060;28;20224;-66
2022/03/25 08:04:42;;;;;;;14.18;10.98;;;;;;;13.45;19.89;95252.50;4985900;28;20209;-67
2022/03/25 08:07:08;;;;;;;24.15;10.35;;;;;;;13.61;20.26;95264.88;4956316;28;20223;-66
2022/03/25 08:09:34;;;;;;;14.82;10.73;;;;;;;13.70;19.74;95263.06;4963257;28;20224;-67
2022/03/25 08:12:00;;;;;;;18.45;11.90;;;;;;;13.78;20.10;95259.59;4963243;28;20640;-67
2022/03/25 08:14:25;;;;;;;20.17;11.10;;;;;;;13.69;19.44;95261.44;4959445;28;20225;-68
2022/03/25 08:16:51;;;;;;;16.23;10.57;;;;;;;13.66;19.91;95267.88;4988828;28;20208;-71
2022/03/25 08:19:16;;;;;;;18.00;11.00;;;;;;;13.68;19.46;95275.63;4962650;28;20525;-68
2022/03/25 08:21:42;;;;;;;19.27;11.43;;;;;;;13.67;19.35;95287.19;4961048;28;20608;-69
2022/03/25 08:29:36;;;;;;;17.27;11.32;;;;;;;13.62;19.75;95271.00;4963276;28;20239;-68
2022/03/25 08:32:03;;;;;;;17.17;10.30;;;;;;;13.66;19.78;95270.50;4955819;28;20220;-67
2022/03/25 08:34:29;;;;;;;18.98;11.30;;;;;;;13.77;19.46;95279.09;4956793;28;20212;-71
2022/03/25 08:36:54;;;;;;;15.95;10.32;;;;;;;13.74;19.80;95282.91;4962739;28;20606;-68
2022/03/25 08:39:20;;;;;;;17.25;10.88;;;;;;;13.79;19.44;95259.44;4956701;28;20259;-69
2022/03/25 08:41:45;;;;;;;17.55;11.30;;;;;;;13.89;19.55;95254.78;4989214;28;20231;-68
2022/03/25 08:44:11;;;;;;;14.68;10.52;;;;;;;14.09;19.46;95251.81;4966065;28;20220;-68
2022/03/25 08:46:37;;;;;;;21.67;10.25;;;;;;;14.13;19.40;95261.06;4965066;28;20216;-67
2022/03/25 08:49:04;;;;;;;16.13;11.38;;;;;;;14.10;19.27;95251.63;4954678;28;20661;-69
2022/03/25 08:51:29;;;;;;;15.57;9.90;;;;;;;14.03;19.05;95274.47;4959465;28;20294;-68
2022/03/25 08:53:55;;;;;;;18.90;11.43;;;;;;;13.96;19.23;95256.78;4951999;28;20232;-70
2022/03/25 08:56:22;;;;;;;15.77;10.52;;;;;;;14.00;19.07;95256.28;4946388;28;20250;-69
2022/03/25 08:58:48;;;;;;;16.52;10.02;;;;;;;14.10;19.31;95258.75;4954367;28;20259;-70
2022/03/25 09:01:13;;;;;;;14.57;10.10;;;;;;;14.18;19.10;95232.28;4964640;28;20224;-71
2022/03/25 09:03:39;;;;;;;15.00;10.18;;;;;;;14.30;18.96;95246.81;4961721;28;20221;-71
2022/03/25 09:06:04;;;;;;;16.85;9.90;;;;;;;14.39;18.80;95258.22;4936662;28;20224;-71
2022/03/25 09:08:30;;;;;;;14.63;9.63;;;;;;;14.38;19.00;95245.13;4954594;28;20449;-70
2022/03/25 09:10:57;;;;;;;14.02;9.80;;;;;;;14.38;18.66;95245.97;4961561;28;20323;-70
2022/03/25 09:13:22;;;;;;;17.52;10.25;;;;;;;14.43;18.72;95243.63;4955032;28;20223;-70
2022/03/25 09:15:48;;;;;;;18.35;10.30;;;;;;;14.62;18.44;95246.91;4983760;28;20233;-69
2022/03/25 09:18:13;;;;;;;16.20;10.13;;;;;;;14.56;17.96;95241.31;4963187;28;20236;-71
2022/03/25 09:20:39;;;;;;;12.35;9.05;;;;;;;14.60;18.15;95246.28;4965537;28;20275;-68
2022/03/25 09:23:05;;;;;;;10.55;9.05;;;;;;;14.69;17.87;95239.94;4960110;28;20212;-68
2022/03/25 09:25:31;;;;;;;15.00;10.00;;;;;;;14.64;17.90;95231.69;4958287;28;20775;-70
2022/03/25 09:27:57;;;;;;;13.20;9.70;;;;;;;14.59;18.18;95239.31;4954260;28;20331;-69
2022/03/25 09:30:22;;;;;;;15.82;9.68;;;;;;;14.59;18.29;95241.97;4954434;28;20679;-68
2022/03/25 09:32:48;;;;;;;14.55;9.65;;;;;;;14.67;18.10;95220.75;4956027;28;20239;-75
2022/03/25 09:35:14;;;;;;;13.45;9.52;;;;;;;14.78;17.85;95231.81;4958300;28;20205;-71
2022/03/25 09:37:46;;;;;;;12.32;9.23;;;;;;;15.04;17.56;95213.97;4960521;28;20207;-71
2022/03/25 09:40:24;;;;;;;12.95;9.35;;;;;;;15.33;17.65;95234.47;4964311;28;20228;-71
2022/03/25 09:42:52;;;;;;;14.95;8.75;;;;;;;15.32;16.96;95223.06;4960502;28;20224;-71
2022/03/25 09:45:19;;;;;;;12.93;8.60;;;;;;;15.43;17.14;95220.00;4964858;28;20239;-70
2022/03/25 09:47:46;;;;;;;11.25;8.25;;;;;;;15.44;16.93;95221.63;4965276;28;20219;-70
2022/03/25 09:50:17;;;;;;;13.93;9.45;;;;;;;15.43;16.93;95230.59;4954689;28;20211;-73
2022/03/25 09:52:44;;;;;;;13.73;8.38;;;;;;;15.56;16.76;95211.47;4968352;28;20973;-71
2022/03/25 09:55:11;;;;;;;13.55;8.82;;;;;;;15.35;16.78;95219.25;4966243;28;20781;-72
2022/03/25 09:57:37;;;;;;;11.80;7.90;;;;;;;15.47;16.26;95230.25;4961742;28;20216;-70
2022/03/25 10:00:06;;;;;;;13.77;7.53;;;;;;;15.36;16.43;95216.41;4962514;28;20223;-73
2022/03/25 10:02:31;;;;;;;9.70;8.07;;;;;;;15.48;16.24;95210.72;4976538;28;20255;-75
2022/03/25 10:04:57;;;;;;;10.55;7.78;;;;;;;15.75;16.28;95220.78;4959127;28;20208;-71
2022/03/25 10:07:23;;;;;;;13.82;8.63;;;;;;;15.92;15.77;95218.00;4964152;28;20229;-72
2022/03/25 10:10:09;;;;;;;15.40;8.40;;;;;;;15.94;15.86;95224.75;4968222;28;20228;-70
2022/03/25 10:12:37;;;;;;;11.23;8.45;;;;;;;16.06;15.55;95215.38;4965460;28;20224;-71
2022/03/25 10:15:20;;;;;;;11.55;7.70;;;;;;;16.07;14.98;95221.50;4967624;28;20224;-70
2022/03/25 10:17:47;;;;;;;10.32;7.35;;;;;;;16.09;15.32;95219.47;4961908;28;20733;-68
2022/03/25 10:20:13;;;;;;;9.35;7.75;;;;;;;16.21;14.62;95228.66;4958585;28;20225;-71
2022/03/25 10:22:40;;;;;;;8.98;6.82;;;;;;;16.07;14.83;95222.31;4964905;28;20236;-71
2022/03/25 10:25:09;;;;;;;7.53;6.80;;;;;;;16.25;14.61;95208.72;4964373;28;20228;-69
2022/03/25 10:27:37;;;;;;;11.57;7.35;;;;;;;16.53;14.48;95208.06;4963210;28;20597;-66
2022/03/25 10:30:05;;;;;;;9.57;6.85;;;;;;;16.73;14.36;95206.50;4964557;28;20286;-67
2022/03/25 10:32:31;;;;;;;9.77;6.93;;;;;;;16.67;14.42;95196.59;4965917;28;20239;-69
2022/03/25 10:35:01;;;;;;;8.77;7.32;;;;;;;16.86;14.43;95207.69;4963214;28;20212;-73
2022/03/25 10:37:28;;;;;;;10.07;7.55;;;;;;;16.82;14.44;95195.81;4962241;28;20571;-76
2022/03/25 10:39:54;;;;;;;8.15;7.07;;;;;;;16.86;14.06;95213.81;4964420;28;20227;-77
2022/03/25 10:42:19;;;;;;;9.52;7.22;;;;;;;16.66;14.40;95194.97;4961787;28;20599;-74
2022/03/25 10:44:45;;;;;;;8.25;6.68;;;;;;;16.76;14.23;95186.72;4963932;28;20228;-72
2022/03/25 10:47:19;;;;;;;9.30;6.85;;;;;;;16.92;14.26;95186.53;4963022;28;20212;-70
2022/03/25 10:49:47;;;;;;;12.68;6.90;;;;;;;16.94;14.10;95181.03;4975238;28;20200;-72
2022/03/25 10:52:30;;;;;;;9.15;7.07;;;;;;;17.09;14.28;95199.59;4959558;28;20251;-71
2022/03/25 10:55:15;;;;;;;10.38;6.75;;;;;;;17.35;13.97;95189.25;4963611;28;20260;-74
2022/03/25 10:57:54;;;;;;;12.73;6.80;;;;;;;17.59;13.33;95192.53;4978796;28;20223;-73
2022/03/25 11:00:24;;;;;;;9.25;6.90;;;;;;;17.49;13.49;95200.84;4960266;28;20825;-71
2022/03/25 11:02:51;;;;;;;8.13;6.30;;;;;;;17.67;13.14;95183.59;4964237;28;20307;-73
2022/03/25 11:05:16;;;;;;;9.02;6.80;;;;;;;17.75;13.06;95194.94;4986850;28;20232;-77
2022/03/25 11:07:43;;;;;;;9.60;6.28;;;;;;;17.75;13.04;95186.09;4962705;28;20650;-68
2022/03/25 11:10:12;;;;;;;8.88;6.78;;;;;;;17.68;12.95;95186.06;4958172;28;20232;-73
2022/03/25 11:12:41;;;;;;;9.32;6.10;;;;;;;17.85;13.07;95189.31;4964384;28;20220;-68
2022/03/25 11:15:27;;;;;;;7.18;6.50;;;;;;;17.90;13.07;95186.88;4965821;28;20244;-70
2022/03/25 11:17:53;;;;;;;13.35;6.82;;;;;;;17.68;12.97;95178.09;4962230;28;20224;-67
2022/03/25 11:20:21;;;;;;;6.93;6.07;;;;;;;17.76;13.09;95172.63;4962414;28;20697;-62
2022/03/25 11:22:53;;;;;;;7.53;6.25;;;;;;;18.13;12.94;95170.69;4958535;28;20295;-62
2022/03/25 11:25:21;;;;;;;9.93;6.50;;;;;;;18.34;12.76;95156.50;4992163;28;20291;-67
2022/03/25 11:28:00;;;;;;;11.18;6.60;;;;;;;18.58;12.32;95176.47;4963236;28;20303;-66
2022/03/25 11:30:35;;;;;;;8.38;5.95;;;;;;;18.37;12.76;95169.41;4958820;28;20220;-66